sensor_id;sensor_type;location;lat;lon;timestamp;P1;durP1;ratioP1;P2;durP2;ratioP2
78197;SDS011;67472;51.554;7.812;2023-03-11T00:02:18;6.00;;;4.70;;
78197;SDS011;67472;51.554;7.812;2023-03-11T00:05:03;5.30;;;4.22;;
78197;SDS011;67472;51.554;7.812;2023-03-11T00:07:47;5.50;;;4.15;;
78197;SDS011;67472;51.554;7.812;2023-03-11T00:10:38;4.38;;;3.97;;
78197;SDS011;67472;51.554;7.812;2023-03-11T00:13:24;5.55;;;4.60;;
78197;SDS011;67472;51.554;7.812;2023-03-11T00:16:11;4.13;;;3.72;;
78197;SDS011;67472;51.554;7.812;2023-03-11T00:18:55;6.35;;;4.20;;
78197;SDS011;67472;51.554;7.812;2023-03-11T00:21:42;4.00;;;3.70;;
78197;SDS011;67472;51.554;7.812;2023-03-11T00:24:26;5.13;;;4.00;;
78197;SDS011;67472;51.554;7.812;2023-03-11T00:27:10;3.95;;;3.65;;
78197;SDS011;67472;51.554;7.812;2023-03-11T00:29:55;3.90;;;3.58;;
78197;SDS011;67472;51.554;7.812;2023-03-11T00:32:39;4.22;;;3.70;;
78197;SDS011;67472;51.554;7.812;2023-03-11T00:35:26;4.20;;;3.80;;
78197;SDS011;67472;51.554;7.812;2023-03-11T00:38:13;5.07;;;3.72;;
78197;SDS011;67472;51.554;7.812;2023-03-11T00:40:58;4.70;;;3.65;;
78197;SDS011;67472;51.554;7.812;2023-03-11T00:43:48;5.25;;;3.58;;
78197;SDS011;67472;51.554;7.812;2023-03-11T00:46:32;4.18;;;3.15;;
78197;SDS011;67472;51.554;7.812;2023-03-11T00:49:16;3.65;;;3.35;;
78197;SDS011;67472;51.554;7.812;2023-03-11T00:52:01;4.28;;;3.80;;
78197;SDS011;67472;51.554;7.812;2023-03-11T00:54:46;3.38;;;2.90;;
78197;SDS011;67472;51.554;7.812;2023-03-11T00:57:31;3.60;;;3.13;;
78197;SDS011;67472;51.554;7.812;2023-03-11T01:00:17;3.85;;;3.10;;
78197;SDS011;67472;51.554;7.812;2023-03-11T01:03:02;3.53;;;3.22;;
78197;SDS011;67472;51.554;7.812;2023-03-11T01:05:47;7.40;;;3.40;;
78197;SDS011;67472;51.554;7.812;2023-03-11T01:08:32;3.30;;;3.00;;
78197;SDS011;67472;51.554;7.812;2023-03-11T01:11:16;6.72;;;3.33;;
78197;SDS011;67472;51.554;7.812;2023-03-11T01:14:02;4.43;;;3.42;;
78197;SDS011;67472;51.554;7.812;2023-03-11T01:16:47;3.05;;;2.78;;
78197;SDS011;67472;51.554;7.812;2023-03-11T01:19:33;3.63;;;3.33;;
78197;SDS011;67472;51.554;7.812;2023-03-11T01:22:17;4.40;;;3.47;;
78197;SDS011;67472;51.554;7.812;2023-03-11T01:25:02;6.68;;;3.33;;
78197;SDS011;67472;51.554;7.812;2023-03-11T01:27:47;3.58;;;3.28;;
78197;SDS011;67472;51.554;7.812;2023-03-11T01:30:32;4.93;;;3.63;;
78197;SDS011;67472;51.554;7.812;2023-03-11T01:33:17;5.43;;;3.20;;
78197;SDS011;67472;51.554;7.812;2023-03-11T01:36:02;4.25;;;3.85;;
78197;SDS011;67472;51.554;7.812;2023-03-11T01:38:47;5.13;;;3.75;;
78197;SDS011;67472;51.554;7.812;2023-03-11T01:41:31;4.65;;;4.15;;
78197;SDS011;67472;51.554;7.812;2023-03-11T01:44:17;6.85;;;3.97;;
78197;SDS011;67472;51.554;7.812;2023-03-11T01:49:50;6.55;;;4.30;;
78197;SDS011;67472;51.554;7.812;2023-03-11T01:52:34;4.65;;;3.67;;
78197;SDS011;67472;51.554;7.812;2023-03-11T01:55:18;8.48;;;4.53;;
78197;SDS011;67472;51.554;7.812;2023-03-11T01:58:05;9.05;;;4.10;;
78197;SDS011;67472;51.554;7.812;2023-03-11T02:00:53;4.80;;;3.75;;
78197;SDS011;67472;51.554;7.812;2023-03-11T02:03:39;4.10;;;3.60;;
78197;SDS011;67472;51.554;7.812;2023-03-11T02:06:25;5.13;;;4.10;;
78197;SDS011;67472;51.554;7.812;2023-03-11T02:09:10;7.07;;;4.07;;
78197;SDS011;67472;51.554;7.812;2023-03-11T02:11:54;3.53;;;2.95;;
78197;SDS011;67472;51.554;7.812;2023-03-11T02:14:41;6.95;;;4.10;;
78197;SDS011;67472;51.554;7.812;2023-03-11T02:17:29;3.97;;;3.20;;
78197;SDS011;67472;51.554;7.812;2023-03-11T02:20:31;4.97;;;3.78;;
78197;SDS011;67472;51.554;7.812;2023-03-11T02:23:38;4.70;;;3.80;;
78197;SDS011;67472;51.554;7.812;2023-03-11T02:29:49;7.78;;;4.57;;
78197;SDS011;67472;51.554;7.812;2023-03-11T02:32:36;7.35;;;4.10;;
78197;SDS011;67472;51.554;7.812;2023-03-11T02:35:21;6.25;;;4.20;;
78197;SDS011;67472;51.554;7.812;2023-03-11T02:38:10;10.80;;;5.15;;
78197;SDS011;67472;51.554;7.812;2023-03-11T02:43:44;6.95;;;4.00;;
78197;SDS011;67472;51.554;7.812;2023-03-11T02:46:31;8.32;;;4.25;;
78197;SDS011;67472;51.554;7.812;2023-03-11T02:49:16;5.93;;;3.90;;
78197;SDS011;67472;51.554;7.812;2023-03-11T02:52:02;5.95;;;4.18;;
78197;SDS011;67472;51.554;7.812;2023-03-11T02:54:47;5.65;;;3.92;;
78197;SDS011;67472;51.554;7.812;2023-03-11T02:57:32;8.85;;;4.15;;
78197;SDS011;67472;51.554;7.812;2023-03-11T03:00:16;7.82;;;3.63;;
78197;SDS011;67472;51.554;7.812;2023-03-11T03:03:09;6.82;;;3.58;;
78197;SDS011;67472;51.554;7.812;2023-03-11T03:05:54;7.32;;;3.72;;
78197;SDS011;67472;51.554;7.812;2023-03-11T03:08:38;5.82;;;3.90;;
78197;SDS011;67472;51.554;7.812;2023-03-11T03:11:23;9.00;;;3.70;;
78197;SDS011;67472;51.554;7.812;2023-03-11T03:14:07;4.85;;;3.67;;
78197;SDS011;67472;51.554;7.812;2023-03-11T03:16:52;9.43;;;5.05;;
78197;SDS011;67472;51.554;7.812;2023-03-11T03:19:37;5.47;;;3.67;;
78197;SDS011;67472;51.554;7.812;2023-03-11T03:22:21;4.90;;;3.15;;
78197;SDS011;67472;51.554;7.812;2023-03-11T03:25:09;7.25;;;3.60;;
78197;SDS011;67472;51.554;7.812;2023-03-11T03:27:53;9.52;;;3.40;;
78197;SDS011;67472;51.554;7.812;2023-03-11T03:30:38;4.85;;;3.78;;
78197;SDS011;67472;51.554;7.812;2023-03-11T03:33:23;5.03;;;3.50;;
78197;SDS011;67472;51.554;7.812;2023-03-11T03:36:08;4.53;;;3.88;;
78197;SDS011;67472;51.554;7.812;2023-03-11T03:38:59;6.53;;;4.20;;
78197;SDS011;67472;51.554;7.812;2023-03-11T03:41:49;5.07;;;3.90;;
78197;SDS011;67472;51.554;7.812;2023-03-11T03:44:33;7.50;;;5.10;;
78197;SDS011;67472;51.554;7.812;2023-03-11T03:47:18;12.23;;;4.57;;
78197;SDS011;67472;51.554;7.812;2023-03-11T03:50:04;9.05;;;4.38;;
78197;SDS011;67472;51.554;7.812;2023-03-11T03:52:51;8.57;;;3.28;;
78197;SDS011;67472;51.554;7.812;2023-03-11T03:55:36;9.18;;;3.92;;
78197;SDS011;67472;51.554;7.812;2023-03-11T03:58:21;12.50;;;3.97;;
78197;SDS011;67472;51.554;7.812;2023-03-11T04:01:06;12.68;;;4.25;;
78197;SDS011;67472;51.554;7.812;2023-03-11T04:03:52;12.07;;;4.18;;
78197;SDS011;67472;51.554;7.812;2023-03-11T04:06:36;4.43;;;2.60;;
78197;SDS011;67472;51.554;7.812;2023-03-11T04:09:23;7.85;;;4.13;;
78197;SDS011;67472;51.554;7.812;2023-03-11T04:12:14;7.28;;;4.35;;
78197;SDS011;67472;51.554;7.812;2023-03-11T04:15:00;10.18;;;5.10;;
78197;SDS011;67472;51.554;7.812;2023-03-11T04:17:45;15.80;;;5.95;;
78197;SDS011;67472;51.554;7.812;2023-03-11T04:20:31;14.75;;;4.78;;
78197;SDS011;67472;51.554;7.812;2023-03-11T04:23:15;5.43;;;3.72;;
78197;SDS011;67472;51.554;7.812;2023-03-11T04:26:01;7.30;;;3.78;;
78197;SDS011;67472;51.554;7.812;2023-03-11T04:28:46;8.02;;;3.70;;
78197;SDS011;67472;51.554;7.812;2023-03-11T04:31:32;10.05;;;4.03;;
78197;SDS011;67472;51.554;7.812;2023-03-11T04:34:19;6.03;;;3.53;;
78197;SDS011;67472;51.554;7.812;2023-03-11T04:37:04;6.10;;;2.88;;
78197;SDS011;67472;51.554;7.812;2023-03-11T04:39:51;8.00;;;3.47;;
78197;SDS011;67472;51.554;7.812;2023-03-11T04:42:36;6.05;;;3.67;;
78197;SDS011;67472;51.554;7.812;2023-03-11T04:45:22;8.23;;;2.88;;
78197;SDS011;67472;51.554;7.812;2023-03-11T04:48:08;10.23;;;3.70;;
78197;SDS011;67472;51.554;7.812;2023-03-11T04:50:55;6.40;;;3.15;;
78197;SDS011;67472;51.554;7.812;2023-03-11T04:53:40;8.77;;;3.00;;
78197;SDS011;67472;51.554;7.812;2023-03-11T04:56:25;5.95;;;2.90;;
78197;SDS011;67472;51.554;7.812;2023-03-11T04:59:10;9.15;;;3.38;;
78197;SDS011;67472;51.554;7.812;2023-03-11T05:01:56;7.43;;;3.70;;
78197;SDS011;67472;51.554;7.812;2023-03-11T05:04:41;8.00;;;3.63;;
78197;SDS011;67472;51.554;7.812;2023-03-11T05:07:25;9.13;;;3.95;;
78197;SDS011;67472;51.554;7.812;2023-03-11T05:10:10;8.95;;;3.65;;
78197;SDS011;67472;51.554;7.812;2023-03-11T05:12:56;7.72;;;3.63;;
78197;SDS011;67472;51.554;7.812;2023-03-11T05:15:44;6.25;;;3.03;;
78197;SDS011;67472;51.554;7.812;2023-03-11T05:18:33;5.63;;;3.10;;
78197;SDS011;67472;51.554;7.812;2023-03-11T05:21:25;7.10;;;3.22;;
78197;SDS011;67472;51.554;7.812;2023-03-11T05:24:10;7.03;;;3.35;;
78197;SDS011;67472;51.554;7.812;2023-03-11T05:26:54;5.65;;;2.90;;
78197;SDS011;67472;51.554;7.812;2023-03-11T05:29:39;5.05;;;2.70;;
78197;SDS011;67472;51.554;7.812;2023-03-11T05:32:27;7.85;;;2.65;;
78197;SDS011;67472;51.554;7.812;2023-03-11T05:35:12;9.07;;;2.78;;
78197;SDS011;67472;51.554;7.812;2023-03-11T05:37:57;13.65;;;3.05;;
78197;SDS011;67472;51.554;7.812;2023-03-11T05:40:45;5.85;;;2.50;;
78197;SDS011;67472;51.554;7.812;2023-03-11T05:43:30;7.97;;;3.08;;
78197;SDS011;67472;51.554;7.812;2023-03-11T05:46:14;9.57;;;2.53;;
78197;SDS011;67472;51.554;7.812;2023-03-11T05:48:59;10.40;;;3.35;;
78197;SDS011;67472;51.554;7.812;2023-03-11T05:51:44;7.70;;;2.90;;
78197;SDS011;67472;51.554;7.812;2023-03-11T05:54:28;8.35;;;2.67;;
78197;SDS011;67472;51.554;7.812;2023-03-11T05:57:13;5.75;;;2.42;;
78197;SDS011;67472;51.554;7.812;2023-03-11T05:59:57;9.50;;;2.78;;
78197;SDS011;67472;51.554;7.812;2023-03-11T06:02:42;4.00;;;2.47;;
78197;SDS011;67472;51.554;7.812;2023-03-11T06:05:30;5.05;;;2.45;;
78197;SDS011;67472;51.554;7.812;2023-03-11T06:08:15;7.10;;;2.45;;
78197;SDS011;67472;51.554;7.812;2023-03-11T06:11:01;6.40;;;3.20;;
78197;SDS011;67472;51.554;7.812;2023-03-11T06:13:50;13.10;;;2.97;;
78197;SDS011;67472;51.554;7.812;2023-03-11T06:16:39;4.30;;;2.92;;
78197;SDS011;67472;51.554;7.812;2023-03-11T06:19:25;7.53;;;2.80;;
78197;SDS011;67472;51.554;7.812;2023-03-11T06:22:10;5.28;;;2.55;;
78197;SDS011;67472;51.554;7.812;2023-03-11T06:24:55;6.95;;;2.80;;
78197;SDS011;67472;51.554;7.812;2023-03-11T06:27:40;5.53;;;2.35;;
78197;SDS011;67472;51.554;7.812;2023-03-11T06:30:26;8.88;;;2.78;;
78197;SDS011;67472;51.554;7.812;2023-03-11T06:33:17;10.70;;;2.85;;
78197;SDS011;67472;51.554;7.812;2023-03-11T06:36:03;5.28;;;2.75;;
78197;SDS011;67472;51.554;7.812;2023-03-11T06:38:49;6.28;;;2.40;;
78197;SDS011;67472;51.554;7.812;2023-03-11T06:41:36;7.72;;;2.72;;
78197;SDS011;67472;51.554;7.812;2023-03-11T06:44:22;6.88;;;2.70;;
78197;SDS011;67472;51.554;7.812;2023-03-11T06:47:06;5.43;;;2.53;;
78197;SDS011;67472;51.554;7.812;2023-03-11T06:49:51;4.82;;;2.30;;
78197;SDS011;67472;51.554;7.812;2023-03-11T06:52:35;4.10;;;2.53;;
78197;SDS011;67472;51.554;7.812;2023-03-11T06:55:20;6.10;;;3.17;;
78197;SDS011;67472;51.554;7.812;2023-03-11T06:58:04;13.07;;;4.35;;
78197;SDS011;67472;51.554;7.812;2023-03-11T07:00:49;10.02;;;3.28;;
78197;SDS011;67472;51.554;7.812;2023-03-11T07:03:33;6.13;;;2.97;;
78197;SDS011;67472;51.554;7.812;2023-03-11T07:06:19;5.70;;;2.50;;
78197;SDS011;67472;51.554;7.812;2023-03-11T07:09:05;10.73;;;3.40;;
78197;SDS011;67472;51.554;7.812;2023-03-11T07:11:52;4.43;;;2.72;;
78197;SDS011;67472;51.554;7.812;2023-03-11T07:14:55;3.60;;;2.22;;
78197;SDS011;67472;51.554;7.812;2023-03-11T07:17:39;15.90;;;2.58;;
78197;SDS011;67472;51.554;7.812;2023-03-11T07:20:24;6.20;;;2.50;;
78197;SDS011;67472;51.554;7.812;2023-03-11T07:23:08;5.97;;;3.00;;
78197;SDS011;67472;51.554;7.812;2023-03-11T07:25:53;7.53;;;3.22;;
78197;SDS011;67472;51.554;7.812;2023-03-11T07:28:38;6.35;;;2.75;;
78197;SDS011;67472;51.554;7.812;2023-03-11T07:31:27;6.72;;;2.58;;
78197;SDS011;67472;51.554;7.812;2023-03-11T07:34:16;7.13;;;2.83;;
78197;SDS011;67472;51.554;7.812;2023-03-11T07:37:01;7.05;;;2.72;;
78197;SDS011;67472;51.554;7.812;2023-03-11T07:39:45;7.20;;;3.53;;
78197;SDS011;67472;51.554;7.812;2023-03-11T07:42:30;3.70;;;2.05;;
78197;SDS011;67472;51.554;7.812;2023-03-11T07:45:14;9.73;;;2.80;;
78197;SDS011;67472;51.554;7.812;2023-03-11T07:47:59;8.45;;;2.40;;
78197;SDS011;67472;51.554;7.812;2023-03-11T07:50:43;9.30;;;2.92;;
78197;SDS011;67472;51.554;7.812;2023-03-11T07:53:27;4.95;;;2.00;;
78197;SDS011;67472;51.554;7.812;2023-03-11T07:56:13;6.63;;;2.25;;
78197;SDS011;67472;51.554;7.812;2023-03-11T07:58:59;5.57;;;2.67;;
78197;SDS011;67472;51.554;7.812;2023-03-11T08:01:44;9.68;;;2.28;;
78197;SDS011;67472;51.554;7.812;2023-03-11T08:04:30;8.50;;;2.67;;
78197;SDS011;67472;51.554;7.812;2023-03-11T08:07:14;6.30;;;2.60;;
78197;SDS011;67472;51.554;7.812;2023-03-11T08:09:59;7.47;;;2.60;;
78197;SDS011;67472;51.554;7.812;2023-03-11T08:12:43;6.63;;;2.85;;
78197;SDS011;67472;51.554;7.812;2023-03-11T08:15:28;4.00;;;2.28;;
78197;SDS011;67472;51.554;7.812;2023-03-11T08:18:13;7.72;;;2.40;;
78197;SDS011;67472;51.554;7.812;2023-03-11T08:20:57;9.13;;;2.70;;
78197;SDS011;67472;51.554;7.812;2023-03-11T08:23:42;8.75;;;2.42;;
78197;SDS011;67472;51.554;7.812;2023-03-11T08:26:27;8.73;;;2.65;;
78197;SDS011;67472;51.554;7.812;2023-03-11T08:29:12;6.88;;;2.42;;
78197;SDS011;67472;51.554;7.812;2023-03-11T08:31:56;12.80;;;2.38;;
78197;SDS011;67472;51.554;7.812;2023-03-11T08:34:41;7.25;;;2.25;;
78197;SDS011;67472;51.554;7.812;2023-03-11T08:37:25;3.60;;;1.95;;
78197;SDS011;67472;51.554;7.812;2023-03-11T08:40:10;6.07;;;3.05;;
78197;SDS011;67472;51.554;7.812;2023-03-11T08:42:55;5.20;;;2.22;;
78197;SDS011;67472;51.554;7.812;2023-03-11T08:45:40;6.25;;;1.98;;
78197;SDS011;67472;51.554;7.812;2023-03-11T08:48:25;3.97;;;1.48;;
78197;SDS011;67472;51.554;7.812;2023-03-11T08:51:10;5.72;;;1.80;;
78197;SDS011;67472;51.554;7.812;2023-03-11T08:53:56;7.18;;;1.23;;
78197;SDS011;67472;51.554;7.812;2023-03-11T08:56:41;3.28;;;1.30;;
78197;SDS011;67472;51.554;7.812;2023-03-11T08:59:25;4.32;;;1.60;;
78197;SDS011;67472;51.554;7.812;2023-03-11T09:02:09;2.60;;;0.98;;
78197;SDS011;67472;51.554;7.812;2023-03-11T09:04:54;2.42;;;1.27;;
78197;SDS011;67472;51.554;7.812;2023-03-11T09:07:39;3.63;;;1.15;;
78197;SDS011;67472;51.554;7.812;2023-03-11T09:10:24;5.22;;;1.38;;
78197;SDS011;67472;51.554;7.812;2023-03-11T09:13:08;5.10;;;1.42;;
78197;SDS011;67472;51.554;7.812;2023-03-11T09:15:53;3.50;;;1.00;;
78197;SDS011;67472;51.554;7.812;2023-03-11T09:18:38;5.72;;;1.20;;
78197;SDS011;67472;51.554;7.812;2023-03-11T09:21:22;5.20;;;1.42;;
78197;SDS011;67472;51.554;7.812;2023-03-11T09:24:06;3.75;;;1.10;;
78197;SDS011;67472;51.554;7.812;2023-03-11T09:26:51;6.25;;;1.35;;
78197;SDS011;67472;51.554;7.812;2023-03-11T09:29:35;3.10;;;1.42;;
78197;SDS011;67472;51.554;7.812;2023-03-11T09:32:20;3.90;;;1.15;;
78197;SDS011;67472;51.554;7.812;2023-03-11T09:35:05;7.88;;;1.30;;
78197;SDS011;67472;51.554;7.812;2023-03-11T09:37:49;2.75;;;0.80;;
78197;SDS011;67472;51.554;7.812;2023-03-11T09:49:52;1.95;;;0.80;;
78197;SDS011;67472;51.554;7.812;2023-03-11T09:55:54;7.75;;;1.30;;
78197;SDS011;67472;51.554;7.812;2023-03-11T10:01:41;3.00;;;0.80;;
78197;SDS011;67472;51.554;7.812;2023-03-11T10:07:41;2.95;;;1.40;;
78197;SDS011;67472;51.554;7.812;2023-03-11T10:10:29;2.38;;;1.40;;
78197;SDS011;67472;51.554;7.812;2023-03-11T10:13:22;1.67;;;1.35;;
78197;SDS011;67472;51.554;7.812;2023-03-11T10:16:19;2.03;;;1.02;;
78197;SDS011;67472;51.554;7.812;2023-03-11T10:22:21;1.92;;;1.23;;
78197;SDS011;67472;51.554;7.812;2023-03-11T10:25:40;5.57;;;1.48;;
78197;SDS011;67472;51.554;7.812;2023-03-11T10:28:39;4.70;;;1.00;;
78197;SDS011;67472;51.554;7.812;2023-03-11T10:37:20;7.80;;;1.38;;
78197;SDS011;67472;51.554;7.812;2023-03-11T10:43:16;3.13;;;0.95;;
78197;SDS011;67472;51.554;7.812;2023-03-11T10:46:20;4.43;;;2.08;;
78197;SDS011;67472;51.554;7.812;2023-03-11T10:49:12;3.60;;;1.17;;
78197;SDS011;67472;51.554;7.812;2023-03-11T10:52:00;3.03;;;1.20;;
78197;SDS011;67472;51.554;7.812;2023-03-11T10:54:47;1.67;;;0.82;;
78197;SDS011;67472;51.554;7.812;2023-03-11T10:57:42;6.18;;;1.25;;
78197;SDS011;67472;51.554;7.812;2023-03-11T11:00:28;5.47;;;1.35;;
78197;SDS011;67472;51.554;7.812;2023-03-11T11:03:17;3.90;;;1.23;;
78197;SDS011;67472;51.554;7.812;2023-03-11T11:06:09;4.15;;;1.30;;
78197;SDS011;67472;51.554;7.812;2023-03-11T11:12:05;2.78;;;1.17;;
78197;SDS011;67472;51.554;7.812;2023-03-11T11:14:57;2.47;;;1.02;;
78197;SDS011;67472;51.554;7.812;2023-03-11T11:17:42;3.65;;;0.90;;
78197;SDS011;67472;51.554;7.812;2023-03-11T11:20:30;3.58;;;1.25;;
78197;SDS011;67472;51.554;7.812;2023-03-11T11:23:27;3.65;;;1.08;;
78197;SDS011;67472;51.554;7.812;2023-03-11T11:26:22;3.20;;;1.23;;
78197;SDS011;67472;51.554;7.812;2023-03-11T11:31:53;2.65;;;1.08;;
78197;SDS011;67472;51.554;7.812;2023-03-11T11:35:09;1.52;;;0.80;;
78197;SDS011;67472;51.554;7.812;2023-03-11T11:37:58;0.93;;;0.70;;
78197;SDS011;67472;51.554;7.812;2023-03-11T11:40:45;4.88;;;1.08;;
78197;SDS011;67472;51.554;7.812;2023-03-11T11:43:49;3.30;;;0.95;;
78197;SDS011;67472;51.554;7.812;2023-03-11T11:46:39;2.75;;;1.02;;
78197;SDS011;67472;51.554;7.812;2023-03-11T11:49:30;5.10;;;3.10;;
78197;SDS011;67472;51.554;7.812;2023-03-11T11:52:21;4.90;;;2.40;;
78197;SDS011;67472;51.554;7.812;2023-03-11T11:55:21;1.58;;;0.90;;
78197;SDS011;67472;51.554;7.812;2023-03-11T11:58:09;2.63;;;1.08;;
78197;SDS011;67472;51.554;7.812;2023-03-11T12:01:12;3.33;;;0.98;;
78197;SDS011;67472;51.554;7.812;2023-03-11T12:10:08;3.85;;;0.95;;
78197;SDS011;67472;51.554;7.812;2023-03-11T12:13:20;2.25;;;1.02;;
78197;SDS011;67472;51.554;7.812;2023-03-11T12:18:51;4.15;;;1.33;;
78197;SDS011;67472;51.554;7.812;2023-03-11T12:21:55;3.63;;;1.02;;
78197;SDS011;67472;51.554;7.812;2023-03-11T12:24:47;3.25;;;0.93;;
78197;SDS011;67472;51.554;7.812;2023-03-11T12:27:59;3.17;;;0.85;;
78197;SDS011;67472;51.554;7.812;2023-03-11T12:31:10;3.78;;;0.95;;
78197;SDS011;67472;51.554;7.812;2023-03-11T12:33:58;1.35;;;1.10;;
78197;SDS011;67472;51.554;7.812;2023-03-11T12:36:45;3.83;;;0.88;;
78197;SDS011;67472;51.554;7.812;2023-03-11T12:39:32;1.95;;;0.70;;
78197;SDS011;67472;51.554;7.812;2023-03-11T12:48:48;5.00;;;0.95;;
78197;SDS011;67472;51.554;7.812;2023-03-11T12:57:48;2.90;;;1.10;;
78197;SDS011;67472;51.554;7.812;2023-03-11T13:00:44;2.75;;;1.48;;
78197;SDS011;67472;51.554;7.812;2023-03-11T13:03:41;1.75;;;1.10;;
78197;SDS011;67472;51.554;7.812;2023-03-11T13:10:04;4.95;;;1.35;;
78197;SDS011;67472;51.554;7.812;2023-03-11T13:12:56;0.95;;;0.70;;
78197;SDS011;67472;51.554;7.812;2023-03-11T13:15:42;3.55;;;1.10;;
78197;SDS011;67472;51.554;7.812;2023-03-11T13:18:27;2.40;;;0.90;;
78197;SDS011;67472;51.554;7.812;2023-03-11T13:27:12;2.17;;;0.80;;
78197;SDS011;67472;51.554;7.812;2023-03-11T13:30:17;4.43;;;1.15;;
78197;SDS011;67472;51.554;7.812;2023-03-11T13:42:16;2.83;;;1.65;;
78197;SDS011;67472;51.554;7.812;2023-03-11T13:45:08;2.83;;;1.63;;
78197;SDS011;67472;51.554;7.812;2023-03-11T13:51:34;2.13;;;1.13;;
78197;SDS011;67472;51.554;7.812;2023-03-11T13:57:01;2.83;;;1.45;;
78197;SDS011;67472;51.554;7.812;2023-03-11T13:59:46;3.17;;;1.52;;
78197;SDS011;67472;51.554;7.812;2023-03-11T14:02:35;2.67;;;1.40;;
78197;SDS011;67472;51.554;7.812;2023-03-11T14:05:22;27.67;;;7.97;;
78197;SDS011;67472;51.554;7.812;2023-03-11T14:08:17;2.05;;;1.60;;
78197;SDS011;67472;51.554;7.812;2023-03-11T14:13:54;3.92;;;2.00;;
78197;SDS011;67472;51.554;7.812;2023-03-11T14:16:39;2.70;;;1.70;;
78197;SDS011;67472;51.554;7.812;2023-03-11T14:19:26;5.45;;;1.70;;
78197;SDS011;67472;51.554;7.812;2023-03-11T14:22:13;4.15;;;1.60;;
78197;SDS011;67472;51.554;7.812;2023-03-11T14:24:59;3.75;;;1.30;;
78197;SDS011;67472;51.554;7.812;2023-03-11T14:27:50;3.75;;;1.20;;
78197;SDS011;67472;51.554;7.812;2023-03-11T14:30:36;2.90;;;1.38;;
78197;SDS011;67472;51.554;7.812;2023-03-11T14:33:21;5.22;;;1.50;;
78197;SDS011;67472;51.554;7.812;2023-03-11T14:36:08;2.80;;;1.25;;
78197;SDS011;67472;51.554;7.812;2023-03-11T14:38:56;2.88;;;1.70;;
78197;SDS011;67472;51.554;7.812;2023-03-11T14:41:41;4.35;;;2.40;;
78197;SDS011;67472;51.554;7.812;2023-03-11T14:44:25;1.92;;;1.50;;
78197;SDS011;67472;51.554;7.812;2023-03-11T14:47:18;3.50;;;1.40;;
78197;SDS011;67472;51.554;7.812;2023-03-11T14:50:08;2.25;;;1.75;;
78197;SDS011;67472;51.554;7.812;2023-03-11T14:53:01;5.25;;;1.85;;
78197;SDS011;67472;51.554;7.812;2023-03-11T14:56:00;1.65;;;1.33;;
78197;SDS011;67472;51.554;7.812;2023-03-11T14:58:49;4.40;;;2.17;;
78197;SDS011;67472;51.554;7.812;2023-03-11T15:01:37;2.35;;;1.30;;
78197;SDS011;67472;51.554;7.812;2023-03-11T15:04:27;2.65;;;1.33;;
78197;SDS011;67472;51.554;7.812;2023-03-11T15:07:18;4.30;;;1.73;;
78197;SDS011;67472;51.554;7.812;2023-03-11T15:10:09;1.10;;;1.00;;
78197;SDS011;67472;51.554;7.812;2023-03-11T15:22:28;1.55;;;1.00;;
78197;SDS011;67472;51.554;7.812;2023-03-11T15:25:17;2.35;;;1.02;;
78197;SDS011;67472;51.554;7.812;2023-03-11T15:34:23;2.20;;;1.20;;
78197;SDS011;67472;51.554;7.812;2023-03-11T15:37:19;3.17;;;1.40;;
78197;SDS011;67472;51.554;7.812;2023-03-11T15:43:11;2.05;;;1.17;;
78197;SDS011;67472;51.554;7.812;2023-03-11T15:46:04;2.33;;;1.55;;
78197;SDS011;67472;51.554;7.812;2023-03-11T15:48:48;3.78;;;1.30;;
78197;SDS011;67472;51.554;7.812;2023-03-11T15:51:33;4.47;;;1.73;;
78197;SDS011;67472;51.554;7.812;2023-03-11T15:54:17;4.15;;;1.50;;
78197;SDS011;67472;51.554;7.812;2023-03-11T15:57:03;2.28;;;1.73;;
78197;SDS011;67472;51.554;7.812;2023-03-11T15:59:50;3.13;;;1.73;;
78197;SDS011;67472;51.554;7.812;2023-03-11T16:02:38;4.15;;;2.03;;
78197;SDS011;67472;51.554;7.812;2023-03-11T16:05:23;3.03;;;2.00;;
78197;SDS011;67472;51.554;7.812;2023-03-11T16:08:08;2.50;;;1.50;;
78197;SDS011;67472;51.554;7.812;2023-03-11T16:10:53;3.22;;;1.23;;
78197;SDS011;67472;51.554;7.812;2023-03-11T16:13:38;3.63;;;1.45;;
78197;SDS011;67472;51.554;7.812;2023-03-11T16:16:22;2.28;;;1.38;;
78197;SDS011;67472;51.554;7.812;2023-03-11T16:19:07;1.35;;;1.25;;
78197;SDS011;67472;51.554;7.812;2023-03-11T16:21:51;3.50;;;0.85;;
78197;SDS011;67472;51.554;7.812;2023-03-11T16:24:36;1.40;;;1.25;;
78197;SDS011;67472;51.554;7.812;2023-03-11T16:27:21;4.45;;;1.45;;
78197;SDS011;67472;51.554;7.812;2023-03-11T16:30:05;4.15;;;1.27;;
78197;SDS011;67472;51.554;7.812;2023-03-11T16:32:50;3.85;;;2.40;;
78197;SDS011;67472;51.554;7.812;2023-03-11T16:35:35;10.48;;;3.75;;
78197;SDS011;67472;51.554;7.812;2023-03-11T16:38:19;6.38;;;2.83;;
78197;SDS011;67472;51.554;7.812;2023-03-11T16:41:05;3.03;;;1.90;;
78197;SDS011;67472;51.554;7.812;2023-03-11T16:43:50;4.65;;;1.88;;
78197;SDS011;67472;51.554;7.812;2023-03-11T16:46:34;5.03;;;2.30;;
78197;SDS011;67472;51.554;7.812;2023-03-11T16:49:19;4.72;;;1.60;;
78197;SDS011;67472;51.554;7.812;2023-03-11T16:52:03;1.83;;;1.45;;
78197;SDS011;67472;51.554;7.812;2023-03-11T16:54:48;3.58;;;1.95;;
78197;SDS011;67472;51.554;7.812;2023-03-11T16:57:32;2.95;;;1.80;;
78197;SDS011;67472;51.554;7.812;2023-03-11T17:00:17;2.55;;;1.92;;
78197;SDS011;67472;51.554;7.812;2023-03-11T17:03:02;3.83;;;1.80;;
78197;SDS011;67472;51.554;7.812;2023-03-11T17:05:46;5.50;;;1.85;;
78197;SDS011;67472;51.554;7.812;2023-03-11T17:08:31;3.67;;;2.75;;
78197;SDS011;67472;51.554;7.812;2023-03-11T17:11:22;5.32;;;3.20;;
78197;SDS011;67472;51.554;7.812;2023-03-11T17:14:11;12.02;;;4.53;;
78197;SDS011;67472;51.554;7.812;2023-03-11T17:16:55;9.10;;;4.30;;
78197;SDS011;67472;51.554;7.812;2023-03-11T17:19:40;6.55;;;4.72;;
78197;SDS011;67472;51.554;7.812;2023-03-11T17:22:24;9.45;;;3.42;;
78197;SDS011;67472;51.554;7.812;2023-03-11T17:25:09;5.90;;;3.88;;
78197;SDS011;67472;51.554;7.812;2023-03-11T17:27:53;6.30;;;3.67;;
78197;SDS011;67472;51.554;7.812;2023-03-11T17:30:41;6.32;;;3.47;;
78197;SDS011;67472;51.554;7.812;2023-03-11T17:33:26;7.75;;;4.50;;
78197;SDS011;67472;51.554;7.812;2023-03-11T17:36:12;6.75;;;4.50;;
78197;SDS011;67472;51.554;7.812;2023-03-11T17:38:59;9.68;;;4.88;;
78197;SDS011;67472;51.554;7.812;2023-03-11T17:41:43;8.10;;;4.40;;
78197;SDS011;67472;51.554;7.812;2023-03-11T17:44:27;5.10;;;3.92;;
78197;SDS011;67472;51.554;7.812;2023-03-11T17:47:12;6.80;;;4.57;;
78197;SDS011;67472;51.554;7.812;2023-03-11T17:49:56;6.78;;;3.15;;
78197;SDS011;67472;51.554;7.812;2023-03-11T17:52:41;5.88;;;3.63;;
78197;SDS011;67472;51.554;7.812;2023-03-11T17:55:25;7.20;;;4.43;;
78197;SDS011;67472;51.554;7.812;2023-03-11T17:58:10;18.67;;;11.82;;
78197;SDS011;67472;51.554;7.812;2023-03-11T18:00:54;12.40;;;7.88;;
78197;SDS011;67472;51.554;7.812;2023-03-11T18:03:39;14.32;;;9.45;;
78197;SDS011;67472;51.554;7.812;2023-03-11T18:06:23;12.32;;;7.50;;
78197;SDS011;67472;51.554;7.812;2023-03-11T18:09:08;9.18;;;5.85;;
78197;SDS011;67472;51.554;7.812;2023-03-11T18:11:52;7.75;;;4.22;;
78197;SDS011;67472;51.554;7.812;2023-03-11T18:14:37;8.63;;;4.18;;
78197;SDS011;67472;51.554;7.812;2023-03-11T18:17:21;5.10;;;3.30;;
78197;SDS011;67472;51.554;7.812;2023-03-11T18:20:07;4.75;;;3.78;;
78197;SDS011;67472;51.554;7.812;2023-03-11T18:22:51;6.30;;;4.10;;
78197;SDS011;67472;51.554;7.812;2023-03-11T18:25:36;9.40;;;3.63;;
78197;SDS011;67472;51.554;7.812;2023-03-11T18:28:21;9.00;;;3.90;;
78197;SDS011;67472;51.554;7.812;2023-03-11T18:31:09;4.40;;;3.33;;
78197;SDS011;67472;51.554;7.812;2023-03-11T18:33:55;5.97;;;3.58;;
78197;SDS011;67472;51.554;7.812;2023-03-11T18:36:41;5.63;;;3.65;;
78197;SDS011;67472;51.554;7.812;2023-03-11T18:39:26;7.03;;;4.70;;